sensor_id;sensor_type;location;lat;lon;timestamp;P1;durP1;ratioP1;P2;durP2;ratioP2
35612;SDS011;22054;51.646;7.078;2022-09-13T00:00:38;11.27;;;10.13;;
35612;SDS011;22054;51.646;7.078;2022-09-13T00:03:05;11.82;;;10.85;;
35612;SDS011;22054;51.646;7.078;2022-09-13T00:05:33;11.00;;;9.98;;
35612;SDS011;22054;51.646;7.078;2022-09-13T00:08:00;11.85;;;11.00;;
35612;SDS011;22054;51.646;7.078;2022-09-13T00:10:27;11.43;;;10.73;;
35612;SDS011;22054;51.646;7.078;2022-09-13T00:12:53;11.30;;;10.40;;
35612;SDS011;22054;51.646;7.078;2022-09-13T00:15:19;11.73;;;11.00;;
35612;SDS011;22054;51.646;7.078;2022-09-13T00:17:45;11.60;;;10.80;;
35612;SDS011;22054;51.646;7.078;2022-09-13T00:20:11;12.18;;;10.98;;
35612;SDS011;22054;51.646;7.078;2022-09-13T00:22:37;11.07;;;10.35;;
35612;SDS011;22054;51.646;7.078;2022-09-13T00:25:03;11.45;;;10.65;;
35612;SDS011;22054;51.646;7.078;2022-09-13T00:27:31;12.48;;;11.43;;
35612;SDS011;22054;51.646;7.078;2022-09-13T00:29:58;11.18;;;10.38;;
35612;SDS011;22054;51.646;7.078;2022-09-13T00:32:24;11.52;;;10.55;;
35612;SDS011;22054;51.646;7.078;2022-09-13T00:34:51;11.77;;;10.98;;
35612;SDS011;22054;51.646;7.078;2022-09-13T00:37:17;11.95;;;11.07;;
35612;SDS011;22054;51.646;7.078;2022-09-13T00:39:42;11.10;;;10.40;;
35612;SDS011;22054;51.646;7.078;2022-09-13T00:42:11;11.32;;;10.57;;
35612;SDS011;22054;51.646;7.078;2022-09-13T00:47:24;12.10;;;10.93;;
35612;SDS011;22054;51.646;7.078;2022-09-13T00:50:15;11.38;;;10.38;;
35612;SDS011;22054;51.646;7.078;2022-09-13T00:52:54;10.48;;;9.88;;
35612;SDS011;22054;51.646;7.078;2022-09-13T00:55:40;12.35;;;11.40;;
35612;SDS011;22054;51.646;7.078;2022-09-13T00:58:21;11.63;;;10.65;;
35612;SDS011;22054;51.646;7.078;2022-09-13T01:00:52;11.60;;;10.80;;
35612;SDS011;22054;51.646;7.078;2022-09-13T01:03:22;11.73;;;10.82;;
35612;SDS011;22054;51.646;7.078;2022-09-13T01:05:53;11.05;;;10.15;;
35612;SDS011;22054;51.646;7.078;2022-09-13T01:08:28;10.70;;;9.93;;
35612;SDS011;22054;51.646;7.078;2022-09-13T01:10:55;12.30;;;11.20;;
35612;SDS011;22054;51.646;7.078;2022-09-13T01:13:28;13.20;;;11.10;;
35612;SDS011;22054;51.646;7.078;2022-09-13T01:15:57;11.38;;;10.48;;
35612;SDS011;22054;51.646;7.078;2022-09-13T01:18:23;12.15;;;11.27;;
35612;SDS011;22054;51.646;7.078;2022-09-13T01:39:13;11.02;;;10.02;;
35612;SDS011;22054;51.646;7.078;2022-09-13T01:45:19;11.43;;;10.60;;
35612;SDS011;22054;51.646;7.078;2022-09-13T01:51:00;10.70;;;9.75;;
35612;SDS011;22054;51.646;7.078;2022-09-13T01:57:00;11.98;;;10.80;;
35612;SDS011;22054;51.646;7.078;2022-09-13T02:02:28;11.68;;;10.57;;
35612;SDS011;22054;51.646;7.078;2022-09-13T02:05:07;11.80;;;10.27;;
35612;SDS011;22054;51.646;7.078;2022-09-13T02:07:56;10.73;;;9.82;;
35612;SDS011;22054;51.646;7.078;2022-09-13T02:10:32;9.88;;;8.98;;
35612;SDS011;22054;51.646;7.078;2022-09-13T02:13:03;10.73;;;9.27;;
35612;SDS011;22054;51.646;7.078;2022-09-13T02:15:43;11.20;;;10.13;;
35612;SDS011;22054;51.646;7.078;2022-09-13T02:18:19;10.95;;;10.15;;
35612;SDS011;22054;51.646;7.078;2022-09-13T02:20:52;11.43;;;10.52;;
35612;SDS011;22054;51.646;7.078;2022-09-13T02:23:31;10.30;;;9.50;;
35612;SDS011;22054;51.646;7.078;2022-09-13T02:26:03;11.20;;;9.80;;
35612;SDS011;22054;51.646;7.078;2022-09-13T02:28:34;10.75;;;9.77;;
35612;SDS011;22054;51.646;7.078;2022-09-13T02:31:04;10.98;;;10.18;;
35612;SDS011;22054;51.646;7.078;2022-09-13T02:33:35;10.98;;;10.27;;
35612;SDS011;22054;51.646;7.078;2022-09-13T02:36:19;12.10;;;11.13;;
35612;SDS011;22054;51.646;7.078;2022-09-13T02:38:55;11.82;;;10.93;;
35612;SDS011;22054;51.646;7.078;2022-09-13T02:41:33;11.88;;;10.65;;
35612;SDS011;22054;51.646;7.078;2022-09-13T02:44:14;11.20;;;10.38;;
35612;SDS011;22054;51.646;7.078;2022-09-13T03:01:11;14.05;;;11.13;;
35612;SDS011;22054;51.646;7.078;2022-09-13T03:03:38;11.57;;;10.68;;
35612;SDS011;22054;51.646;7.078;2022-09-13T03:06:03;12.10;;;10.98;;
35612;SDS011;22054;51.646;7.078;2022-09-13T03:08:29;13.02;;;11.85;;
35612;SDS011;22054;51.646;7.078;2022-09-13T03:10:59;11.93;;;11.02;;
35612;SDS011;22054;51.646;7.078;2022-09-13T03:26:06;12.18;;;11.27;;
35612;SDS011;22054;51.646;7.078;2022-09-13T03:29:25;13.15;;;12.05;;
35612;SDS011;22054;51.646;7.078;2022-09-13T03:35:35;12.65;;;11.40;;
35612;SDS011;22054;51.646;7.078;2022-09-13T03:38:45;11.63;;;10.82;;
35612;SDS011;22054;51.646;7.078;2022-09-13T03:41:30;12.40;;;11.40;;
35612;SDS011;22054;51.646;7.078;2022-09-13T03:44:01;11.73;;;10.75;;
35612;SDS011;22054;51.646;7.078;2022-09-13T03:46:41;11.50;;;10.80;;
35612;SDS011;22054;51.646;7.078;2022-09-13T03:49:11;12.65;;;11.65;;
35612;SDS011;22054;51.646;7.078;2022-09-13T03:51:39;11.65;;;10.85;;
35612;SDS011;22054;51.646;7.078;2022-09-13T03:54:10;12.90;;;11.35;;
35612;SDS011;22054;51.646;7.078;2022-09-13T03:59:45;11.00;;;10.15;;
35612;SDS011;22054;51.646;7.078;2022-09-13T04:02:22;13.45;;;11.80;;
35612;SDS011;22054;51.646;7.078;2022-09-13T04:04:50;11.52;;;10.73;;
35612;SDS011;22054;51.646;7.078;2022-09-13T04:07:20;10.90;;;10.00;;
35612;SDS011;22054;51.646;7.078;2022-09-13T04:09:47;12.80;;;11.65;;
35612;SDS011;22054;51.646;7.078;2022-09-13T04:12:14;11.65;;;10.70;;
35612;SDS011;22054;51.646;7.078;2022-09-13T04:14:41;11.55;;;10.55;;
35612;SDS011;22054;51.646;7.078;2022-09-13T04:17:08;11.35;;;10.35;;
35612;SDS011;22054;51.646;7.078;2022-09-13T04:19:34;14.15;;;10.93;;
35612;SDS011;22054;51.646;7.078;2022-09-13T04:22:00;11.52;;;10.45;;
35612;SDS011;22054;51.646;7.078;2022-09-13T04:24:27;10.82;;;10.00;;
35612;SDS011;22054;51.646;7.078;2022-09-13T04:26:54;11.75;;;10.85;;
35612;SDS011;22054;51.646;7.078;2022-09-13T04:29:20;11.35;;;10.25;;
35612;SDS011;22054;51.646;7.078;2022-09-13T04:31:48;11.20;;;10.30;;
35612;SDS011;22054;51.646;7.078;2022-09-13T04:34:15;10.63;;;9.73;;
35612;SDS011;22054;51.646;7.078;2022-09-13T04:36:42;11.43;;;10.43;;
35612;SDS011;22054;51.646;7.078;2022-09-13T04:39:11;12.32;;;11.25;;
35612;SDS011;22054;51.646;7.078;2022-09-13T04:41:40;12.13;;;9.38;;
35612;SDS011;22054;51.646;7.078;2022-09-13T04:44:08;12.13;;;11.02;;
35612;SDS011;22054;51.646;7.078;2022-09-13T04:46:34;12.20;;;10.68;;
35612;SDS011;22054;51.646;7.078;2022-09-13T04:49:00;11.85;;;10.75;;
35612;SDS011;22054;51.646;7.078;2022-09-13T04:51:26;11.63;;;10.55;;
35612;SDS011;22054;51.646;7.078;2022-09-13T04:53:52;11.38;;;10.48;;
35612;SDS011;22054;51.646;7.078;2022-09-13T04:56:19;12.23;;;11.07;;
35612;SDS011;22054;51.646;7.078;2022-09-13T04:58:47;12.23;;;10.32;;
35612;SDS011;22054;51.646;7.078;2022-09-13T05:01:15;11.73;;;10.60;;
35612;SDS011;22054;51.646;7.078;2022-09-13T05:03:41;11.63;;;10.73;;
35612;SDS011;22054;51.646;7.078;2022-09-13T05:06:07;11.18;;;10.18;;
35612;SDS011;22054;51.646;7.078;2022-09-13T05:11:07;11.35;;;10.27;;
35612;SDS011;22054;51.646;7.078;2022-09-13T05:13:33;12.88;;;9.82;;
35612;SDS011;22054;51.646;7.078;2022-09-13T05:16:00;10.93;;;9.90;;
35612;SDS011;22054;51.646;7.078;2022-09-13T05:18:31;14.65;;;11.20;;
35612;SDS011;22054;51.646;7.078;2022-09-13T05:21:00;11.63;;;10.55;;
35612;SDS011;22054;51.646;7.078;2022-09-13T05:23:28;11.77;;;10.68;;
35612;SDS011;22054;51.646;7.078;2022-09-13T05:25:56;11.02;;;10.05;;
35612;SDS011;22054;51.646;7.078;2022-09-13T05:28:25;10.80;;;9.88;;
35612;SDS011;22054;51.646;7.078;2022-09-13T05:30:54;10.60;;;9.80;;
35612;SDS011;22054;51.646;7.078;2022-09-13T05:33:28;10.20;;;9.32;;
35612;SDS011;22054;51.646;7.078;2022-09-13T05:35:56;10.75;;;9.70;;
35612;SDS011;22054;51.646;7.078;2022-09-13T05:38:22;10.68;;;9.65;;
35612;SDS011;22054;51.646;7.078;2022-09-13T05:40:55;12.30;;;11.10;;
35612;SDS011;22054;51.646;7.078;2022-09-13T05:43:23;13.18;;;11.13;;
35612;SDS011;22054;51.646;7.078;2022-09-13T05:45:58;11.30;;;10.48;;
35612;SDS011;22054;51.646;7.078;2022-09-13T05:48:29;11.48;;;10.38;;
35612;SDS011;22054;51.646;7.078;2022-09-13T05:51:02;16.45;;;10.68;;
35612;SDS011;22054;51.646;7.078;2022-09-13T05:53:45;12.18;;;10.90;;
35612;SDS011;22054;51.646;7.078;2022-09-13T05:56:14;11.93;;;10.80;;
35612;SDS011;22054;51.646;7.078;2022-09-13T05:58:46;11.23;;;9.82;;
35612;SDS011;22054;51.646;7.078;2022-09-13T06:01:13;13.27;;;11.18;;
35612;SDS011;22054;51.646;7.078;2022-09-13T06:03:42;13.55;;;12.20;;
35612;SDS011;22054;51.646;7.078;2022-09-13T06:06:10;12.23;;;10.98;;
35612;SDS011;22054;51.646;7.078;2022-09-13T06:08:36;11.57;;;10.48;;
35612;SDS011;22054;51.646;7.078;2022-09-13T06:11:03;11.75;;;10.38;;
35612;SDS011;22054;51.646;7.078;2022-09-13T06:13:31;12.60;;;10.50;;
35612;SDS011;22054;51.646;7.078;2022-09-13T06:15:58;11.48;;;10.15;;
35612;SDS011;22054;51.646;7.078;2022-09-13T06:18:26;14.65;;;10.80;;
35612;SDS011;22054;51.646;7.078;2022-09-13T06:20:57;12.30;;;10.77;;
35612;SDS011;22054;51.646;7.078;2022-09-13T06:23:24;13.57;;;10.48;;
35612;SDS011;22054;51.646;7.078;2022-09-13T06:28:32;12.02;;;10.93;;
35612;SDS011;22054;51.646;7.078;2022-09-13T06:31:03;11.43;;;10.32;;
35612;SDS011;22054;51.646;7.078;2022-09-13T06:33:32;11.93;;;10.68;;
35612;SDS011;22054;51.646;7.078;2022-09-13T06:36:00;11.90;;;10.75;;
35612;SDS011;22054;51.646;7.078;2022-09-13T06:38:38;12.63;;;10.75;;
35612;SDS011;22054;51.646;7.078;2022-09-13T06:41:06;15.80;;;11.38;;
35612;SDS011;22054;51.646;7.078;2022-09-13T06:43:34;12.40;;;11.18;;
35612;SDS011;22054;51.646;7.078;2022-09-13T06:46:02;11.93;;;10.52;;
35612;SDS011;22054;51.646;7.078;2022-09-13T06:48:30;12.30;;;10.77;;
35612;SDS011;22054;51.646;7.078;2022-09-13T06:50:59;11.73;;;10.70;;
35612;SDS011;22054;51.646;7.078;2022-09-13T06:53:26;13.68;;;12.38;;
35612;SDS011;22054;51.646;7.078;2022-09-13T06:58:42;13.93;;;11.20;;
35612;SDS011;22054;51.646;7.078;2022-09-13T07:01:11;13.95;;;12.07;;
35612;SDS011;22054;51.646;7.078;2022-09-13T07:06:07;13.60;;;12.20;;
35612;SDS011;22054;51.646;7.078;2022-09-13T07:08:38;18.67;;;12.25;;
35612;SDS011;22054;51.646;7.078;2022-09-13T07:11:06;13.15;;;11.80;;
35612;SDS011;22054;51.646;7.078;2022-09-13T07:13:33;14.85;;;12.05;;
35612;SDS011;22054;51.646;7.078;2022-09-13T07:16:17;12.80;;;11.52;;
35612;SDS011;22054;51.646;7.078;2022-09-13T07:18:49;13.30;;;12.02;;
35612;SDS011;22054;51.646;7.078;2022-09-13T07:21:16;17.00;;;11.65;;
35612;SDS011;22054;51.646;7.078;2022-09-13T07:23:42;13.48;;;12.35;;
35612;SDS011;22054;51.646;7.078;2022-09-13T07:26:08;16.67;;;12.80;;
35612;SDS011;22054;51.646;7.078;2022-09-13T07:28:37;17.23;;;12.15;;
35612;SDS011;22054;51.646;7.078;2022-09-13T07:31:13;14.73;;;12.20;;
35612;SDS011;22054;51.646;7.078;2022-09-13T07:33:42;13.40;;;11.32;;
35612;SDS011;22054;51.646;7.078;2022-09-13T07:36:10;13.60;;;11.57;;
35612;SDS011;22054;51.646;7.078;2022-09-13T07:38:40;13.50;;;12.20;;
35612;SDS011;22054;51.646;7.078;2022-09-13T07:41:13;21.65;;;16.45;;
35612;SDS011;22054;51.646;7.078;2022-09-13T07:43:42;20.45;;;16.85;;
35612;SDS011;22054;51.646;7.078;2022-09-13T07:46:13;16.77;;;12.60;;
35612;SDS011;22054;51.646;7.078;2022-09-13T07:48:45;15.35;;;13.27;;
35612;SDS011;22054;51.646;7.078;2022-09-13T07:51:18;13.77;;;12.43;;
35612;SDS011;22054;51.646;7.078;2022-09-13T07:56:15;16.70;;;13.35;;
35612;SDS011;22054;51.646;7.078;2022-09-13T08:01:15;13.38;;;12.18;;
35612;SDS011;22054;51.646;7.078;2022-09-13T08:06:26;14.85;;;13.32;;
35612;SDS011;22054;51.646;7.078;2022-09-13T08:08:54;15.60;;;13.15;;
35612;SDS011;22054;51.646;7.078;2022-09-13T08:11:25;15.10;;;13.60;;
35612;SDS011;22054;51.646;7.078;2022-09-13T08:13:57;14.52;;;13.02;;
35612;SDS011;22054;51.646;7.078;2022-09-13T08:16:24;15.23;;;13.50;;
35612;SDS011;22054;51.646;7.078;2022-09-13T08:18:53;15.18;;;13.60;;
35612;SDS011;22054;51.646;7.078;2022-09-13T08:21:22;15.80;;;14.50;;
35612;SDS011;22054;51.646;7.078;2022-09-13T08:23:49;19.88;;;14.13;;
35612;SDS011;22054;51.646;7.078;2022-09-13T08:28:44;16.42;;;14.63;;
35612;SDS011;22054;51.646;7.078;2022-09-13T08:31:13;14.32;;;12.93;;
35612;SDS011;22054;51.646;7.078;2022-09-13T08:33:42;15.57;;;14.07;;
35612;SDS011;22054;51.646;7.078;2022-09-13T08:36:09;21.00;;;15.18;;
35612;SDS011;22054;51.646;7.078;2022-09-13T08:38:35;14.55;;;13.25;;
35612;SDS011;22054;51.646;7.078;2022-09-13T08:41:02;16.13;;;14.55;;
35612;SDS011;22054;51.646;7.078;2022-09-13T08:43:55;17.38;;;15.68;;
35612;SDS011;22054;51.646;7.078;2022-09-13T08:46:43;15.52;;;13.98;;
35612;SDS011;22054;51.646;7.078;2022-09-13T08:49:12;18.95;;;16.42;;
35612;SDS011;22054;51.646;7.078;2022-09-13T08:51:46;16.70;;;15.20;;
35612;SDS011;22054;51.646;7.078;2022-09-13T08:54:15;20.30;;;16.35;;
35612;SDS011;22054;51.646;7.078;2022-09-13T09:05:50;20.92;;;18.83;;
35612;SDS011;22054;51.646;7.078;2022-09-13T09:11:02;20.35;;;16.58;;
35612;SDS011;22054;51.646;7.078;2022-09-13T09:13:36;25.33;;;19.23;;
35612;SDS011;22054;51.646;7.078;2022-09-13T09:18:56;25.60;;;18.35;;
35612;SDS011;22054;51.646;7.078;2022-09-13T09:21:31;24.92;;;18.95;;
35612;SDS011;22054;51.646;7.078;2022-09-13T09:23:57;18.77;;;16.98;;
35612;SDS011;22054;51.646;7.078;2022-09-13T09:28:56;20.77;;;18.67;;
35612;SDS011;22054;51.646;7.078;2022-09-13T09:34:47;20.33;;;18.33;;
35612;SDS011;22054;51.646;7.078;2022-09-13T09:37:35;19.00;;;17.15;;
35612;SDS011;22054;51.646;7.078;2022-09-13T09:40:03;19.70;;;17.75;;
35612;SDS011;22054;51.646;7.078;2022-09-13T09:47:55;20.13;;;18.08;;
35612;SDS011;22054;51.646;7.078;2022-09-13T09:50:31;19.77;;;17.88;;
35612;SDS011;22054;51.646;7.078;2022-09-13T09:53:13;19.88;;;17.75;;
35612;SDS011;22054;51.646;7.078;2022-09-13T09:55:56;20.77;;;18.57;;
35612;SDS011;22054;51.646;7.078;2022-09-13T10:01:14;19.90;;;17.73;;
35612;SDS011;22054;51.646;7.078;2022-09-13T10:03:52;19.90;;;17.80;;
35612;SDS011;22054;51.646;7.078;2022-09-13T10:06:32;19.08;;;17.30;;
35612;SDS011;22054;51.646;7.078;2022-09-13T10:09:06;20.25;;;18.15;;
35612;SDS011;22054;51.646;7.078;2022-09-13T10:11:55;21.83;;;19.83;;
35612;SDS011;22054;51.646;7.078;2022-09-13T10:19:55;20.00;;;18.00;;
35612;SDS011;22054;51.646;7.078;2022-09-13T10:22:25;19.83;;;18.02;;
35612;SDS011;22054;51.646;7.078;2022-09-13T10:25:20;19.92;;;17.73;;
35612;SDS011;22054;51.646;7.078;2022-09-13T10:27:49;19.67;;;17.80;;
35612;SDS011;22054;51.646;7.078;2022-09-13T10:30:31;19.88;;;17.83;;
35612;SDS011;22054;51.646;7.078;2022-09-13T10:33:13;17.63;;;15.93;;
35612;SDS011;22054;51.646;7.078;2022-09-13T10:35:55;19.25;;;17.45;;
35612;SDS011;22054;51.646;7.078;2022-09-13T10:38:30;18.67;;;16.55;;
35612;SDS011;22054;51.646;7.078;2022-09-13T10:41:05;18.60;;;16.88;;
35612;SDS011;22054;51.646;7.078;2022-09-13T10:43:35;19.38;;;17.50;;
35612;SDS011;22054;51.646;7.078;2022-09-13T10:46:03;18.38;;;16.77;;
35612;SDS011;22054;51.646;7.078;2022-09-13T10:48:43;19.05;;;17.23;;
35612;SDS011;22054;51.646;7.078;2022-09-13T10:56:50;17.05;;;15.50;;
35612;SDS011;22054;51.646;7.078;2022-09-13T10:59:26;18.90;;;17.08;;
35612;SDS011;22054;51.646;7.078;2022-09-13T11:05:01;21.50;;;19.48;;
35612;SDS011;22054;51.646;7.078;2022-09-13T11:08:00;18.83;;;17.23;;
35612;SDS011;22054;51.646;7.078;2022-09-13T11:11:06;18.77;;;17.00;;
35612;SDS011;22054;51.646;7.078;2022-09-13T11:17:01;16.88;;;15.43;;
35612;SDS011;22054;51.646;7.078;2022-09-13T11:22:48;17.63;;;15.95;;
35612;SDS011;22054;51.646;7.078;2022-09-13T11:25:34;17.70;;;15.95;;
35612;SDS011;22054;51.646;7.078;2022-09-13T11:31:40;17.50;;;15.68;;
35612;SDS011;22054;51.646;7.078;2022-09-13T11:34:42;15.80;;;14.50;;
35612;SDS011;22054;51.646;7.078;2022-09-13T11:40:26;16.70;;;15.30;;
35612;SDS011;22054;51.646;7.078;2022-09-13T11:43:15;16.08;;;14.60;;
35612;SDS011;22054;51.646;7.078;2022-09-13T11:55:25;15.93;;;14.45;;
35612;SDS011;22054;51.646;7.078;2022-09-13T11:57:59;14.05;;;12.95;;
35612;SDS011;22054;51.646;7.078;2022-09-13T12:00:33;16.50;;;15.02;;
35612;SDS011;22054;51.646;7.078;2022-09-13T12:03:20;15.75;;;14.25;;
35612;SDS011;22054;51.646;7.078;2022-09-13T12:05:57;15.73;;;14.32;;
35612;SDS011;22054;51.646;7.078;2022-09-13T12:08:35;16.05;;;14.73;;
35612;SDS011;22054;51.646;7.078;2022-09-13T12:11:24;16.88;;;15.30;;
35612;SDS011;22054;51.646;7.078;2022-09-13T12:14:00;15.00;;;13.65;;
35612;SDS011;22054;51.646;7.078;2022-09-13T12:16:32;17.45;;;15.93;;
35612;SDS011;22054;51.646;7.078;2022-09-13T12:19:22;16.00;;;14.38;;
35612;SDS011;22054;51.646;7.078;2022-09-13T12:21:56;15.00;;;13.68;;
35612;SDS011;22054;51.646;7.078;2022-09-13T12:24:41;16.55;;;15.18;;
35612;SDS011;22054;51.646;7.078;2022-09-13T12:27:15;17.05;;;15.68;;
35612;SDS011;22054;51.646;7.078;2022-09-13T12:29:55;16.33;;;14.82;;
35612;SDS011;22054;51.646;7.078;2022-09-13T12:32:30;15.07;;;13.90;;
35612;SDS011;22054;51.646;7.078;2022-09-13T12:35:01;14.75;;;13.57;;
35612;SDS011;22054;51.646;7.078;2022-09-13T12:43:52;14.38;;;13.18;;
35612;SDS011;22054;51.646;7.078;2022-09-13T12:49:52;12.23;;;11.18;;
35612;SDS011;22054;51.646;7.078;2022-09-13T12:52:23;14.00;;;12.77;;
35612;SDS011;22054;51.646;7.078;2022-09-13T12:58:53;13.15;;;12.20;;
35612;SDS011;22054;51.646;7.078;2022-09-13T13:01:36;14.27;;;13.10;;
35612;SDS011;22054;51.646;7.078;2022-09-13T13:04:03;13.35;;;12.35;;
35612;SDS011;22054;51.646;7.078;2022-09-13T13:12:02;16.10;;;14.77;;
35612;SDS011;22054;51.646;7.078;2022-09-13T13:28:48;15.65;;;14.25;;
35612;SDS011;22054;51.646;7.078;2022-09-13T13:31:35;12.98;;;11.98;;
35612;SDS011;22054;51.646;7.078;2022-09-13T13:41:53;13.32;;;12.32;;
35612;SDS011;22054;51.646;7.078;2022-09-13T13:46:53;15.02;;;13.85;;
35612;SDS011;22054;51.646;7.078;2022-09-13T14:05:29;11.80;;;11.05;;
35612;SDS011;22054;51.646;7.078;2022-09-13T14:20:18;12.25;;;11.35;;
35612;SDS011;22054;51.646;7.078;2022-09-13T14:22:45;12.63;;;11.32;;
35612;SDS011;22054;51.646;7.078;2022-09-13T14:25:21;13.05;;;12.15;;
35612;SDS011;22054;51.646;7.078;2022-09-13T14:27:49;11.80;;;10.85;;
35612;SDS011;22054;51.646;7.078;2022-09-13T14:30:38;13.35;;;12.40;;
35612;SDS011;22054;51.646;7.078;2022-09-13T14:33:04;13.07;;;12.07;;
35612;SDS011;22054;51.646;7.078;2022-09-13T14:35:31;13.23;;;12.23;;
35612;SDS011;22054;51.646;7.078;2022-09-13T14:38:15;13.20;;;12.15;;
35612;SDS011;22054;51.646;7.078;2022-09-13T14:40:57;12.52;;;11.40;;
35612;SDS011;22054;51.646;7.078;2022-09-13T14:43:27;13.02;;;11.70;;
35612;SDS011;22054;51.646;7.078;2022-09-13T14:46:05;12.55;;;11.43;;
35612;SDS011;22054;51.646;7.078;2022-09-13T14:51:17;12.07;;;11.07;;
35612;SDS011;22054;51.646;7.078;2022-09-13T14:56:27;13.63;;;12.63;;
35612;SDS011;22054;51.646;7.078;2022-09-13T14:59:15;15.07;;;13.52;;
35612;SDS011;22054;51.646;7.078;2022-09-13T15:02:52;14.38;;;13.13;;
35612;SDS011;22054;51.646;7.078;2022-09-13T15:05:04;13.65;;;12.43;;
35612;SDS011;22054;51.646;7.078;2022-09-13T15:07:37;13.15;;;12.15;;
35612;SDS011;22054;51.646;7.078;2022-09-13T15:12:35;13.88;;;12.70;;
35612;SDS011;22054;51.646;7.078;2022-09-13T15:20:28;13.63;;;12.25;;
35612;SDS011;22054;51.646;7.078;2022-09-13T15:23:25;13.45;;;12.45;;
35612;SDS011;22054;51.646;7.078;2022-09-13T15:26:04;14.00;;;12.90;;
35612;SDS011;22054;51.646;7.078;2022-09-13T15:28:48;15.40;;;14.27;;
35612;SDS011;22054;51.646;7.078;2022-09-13T15:31:27;14.05;;;12.73;;
35612;SDS011;22054;51.646;7.078;2022-09-13T15:34:18;12.65;;;11.60;;
35612;SDS011;22054;51.646;7.078;2022-09-13T15:37:01;13.48;;;12.20;;
35612;SDS011;22054;51.646;7.078;2022-09-13T15:39:45;11.27;;;10.50;;
35612;SDS011;22054;51.646;7.078;2022-09-13T15:42:39;12.10;;;10.95;;
35612;SDS011;22054;51.646;7.078;2022-09-13T15:45:09;12.25;;;11.10;;
35612;SDS011;22054;51.646;7.078;2022-09-13T15:47:35;12.30;;;11.30;;
35612;SDS011;22054;51.646;7.078;2022-09-13T15:50:01;11.00;;;10.07;;
35612;SDS011;22054;51.646;7.078;2022-09-13T15:52:27;11.05;;;10.15;;
35612;SDS011;22054;51.646;7.078;2022-09-13T15:54:53;11.48;;;10.07;;
35612;SDS011;22054;51.646;7.078;2022-09-13T15:57:23;10.45;;;9.45;;
35612;SDS011;22054;51.646;7.078;2022-09-13T15:59:51;10.95;;;10.15;;
35612;SDS011;22054;51.646;7.078;2022-09-13T16:02:22;9.73;;;8.85;;
35612;SDS011;22054;51.646;7.078;2022-09-13T16:04:52;12.30;;;11.00;;
35612;SDS011;22054;51.646;7.078;2022-09-13T16:07:18;10.68;;;9.65;;
35612;SDS011;22054;51.646;7.078;2022-09-13T16:09:45;27.70;;;26.00;;
35612;SDS011;22054;51.646;7.078;2022-09-13T16:12:12;26.58;;;25.08;;
35612;SDS011;22054;51.646;7.078;2022-09-13T16:14:38;28.83;;;27.13;;
35612;SDS011;22054;51.646;7.078;2022-09-13T16:17:06;26.58;;;24.85;;
35612;SDS011;22054;51.646;7.078;2022-09-13T16:19:37;11.75;;;8.52;;
35612;SDS011;22054;51.646;7.078;2022-09-13T16:22:02;10.55;;;7.60;;
35612;SDS011;22054;51.646;7.078;2022-09-13T16:24:28;10.30;;;8.93;;
35612;SDS011;22054;51.646;7.078;2022-09-13T16:26:55;13.80;;;12.60;;
35612;SDS011;22054;51.646;7.078;2022-09-13T16:29:25;16.30;;;15.15;;
35612;SDS011;22054;51.646;7.078;2022-09-13T16:31:52;10.20;;;7.30;;
35612;SDS011;22054;51.646;7.078;2022-09-13T16:34:18;10.38;;;9.55;;
35612;SDS011;22054;51.646;7.078;2022-09-13T16:36:44;7.28;;;6.03;;
35612;SDS011;22054;51.646;7.078;2022-09-13T16:39:09;10.30;;;5.95;;
35612;SDS011;22054;51.646;7.078;2022-09-13T16:41:37;7.03;;;5.28;;
35612;SDS011;22054;51.646;7.078;2022-09-13T16:44:04;7.10;;;5.10;;
35612;SDS011;22054;51.646;7.078;2022-09-13T16:46:31;11.98;;;5.75;;
35612;SDS011;22054;51.646;7.078;2022-09-13T16:48:57;6.80;;;6.15;;
35612;SDS011;22054;51.646;7.078;2022-09-13T16:51:23;8.70;;;4.97;;
35612;SDS011;22054;51.646;7.078;2022-09-13T16:53:50;12.95;;;6.65;;
35612;SDS011;22054;51.646;7.078;2022-09-13T16:56:18;8.55;;;5.90;;
35612;SDS011;22054;51.646;7.078;2022-09-13T17:01:15;10.25;;;5.55;;
35612;SDS011;22054;51.646;7.078;2022-09-13T17:03:47;10.38;;;5.15;;
35612;SDS011;22054;51.646;7.078;2022-09-13T17:06:14;5.72;;;4.85;;
35612;SDS011;22054;51.646;7.078;2022-09-13T17:08:45;5.63;;;5.07;;
35612;SDS011;22054;51.646;7.078;2022-09-13T17:11:15;5.75;;;5.25;;
35612;SDS011;22054;51.646;7.078;2022-09-13T17:13:42;5.20;;;4.53;;
35612;SDS011;22054;51.646;7.078;2022-09-13T17:16:26;6.10;;;5.43;;
35612;SDS011;22054;51.646;7.078;2022-09-13T17:19:03;12.18;;;5.28;;
35612;SDS011;22054;51.646;7.078;2022-09-13T17:21:32;6.78;;;5.35;;
35612;SDS011;22054;51.646;7.078;2022-09-13T17:23:59;5.40;;;4.88;;
35612;SDS011;22054;51.646;7.078;2022-09-13T17:26:25;7.65;;;5.18;;
35612;SDS011;22054;51.646;7.078;2022-09-13T17:28:51;6.43;;;4.15;;
35612;SDS011;22054;51.646;7.078;2022-09-13T17:31:17;10.77;;;5.07;;
35612;SDS011;22054;51.646;7.078;2022-09-13T17:33:43;6.80;;;5.03;;
35612;SDS011;22054;51.646;7.078;2022-09-13T17:36:10;6.43;;;4.85;;
35612;SDS011;22054;51.646;7.078;2022-09-13T17:38:38;7.75;;;4.90;;
35612;SDS011;22054;51.646;7.078;2022-09-13T17:41:09;6.88;;;4.40;;
35612;SDS011;22054;51.646;7.078;2022-09-13T17:43:40;7.05;;;4.50;;
35612;SDS011;22054;51.646;7.078;2022-09-13T17:46:09;5.45;;;4.15;;
35612;SDS011;22054;51.646;7.078;2022-09-13T17:48:45;6.20;;;4.32;;
35612;SDS011;22054;51.646;7.078;2022-09-13T17:51:11;7.45;;;4.03;;
35612;SDS011;22054;51.646;7.078;2022-09-13T17:53:44;7.15;;;4.18;;
35612;SDS011;22054;51.646;7.078;2022-09-13T17:56:18;5.57;;;4.50;;
35612;SDS011;22054;51.646;7.078;2022-09-13T17:58:54;5.93;;;3.97;;
35612;SDS011;22054;51.646;7.078;2022-09-13T18:01:22;6.85;;;4.13;;
35612;SDS011;22054;51.646;7.078;2022-09-13T18:03:48;5.50;;;4.28;;
35612;SDS011;22054;51.646;7.078;2022-09-13T18:06:13;6.05;;;4.07;;
35612;SDS011;22054;51.646;7.078;2022-09-13T18:08:39;4.68;;;3.80;;
35612;SDS011;22054;51.646;7.078;2022-09-13T18:11:07;6.18;;;4.07;;
35612;SDS011;22054;51.646;7.078;2022-09-13T18:16:03;5.00;;;3.90;;
35612;SDS011;22054;51.646;7.078;2022-09-13T18:18:41;7.20;;;4.37;;
35612;SDS011;22054;51.646;7.078;2022-09-13T18:21:07;7.55;;;3.90;;
35612;SDS011;22054;51.646;7.078;2022-09-13T18:23:33;5.97;;;3.30;;
35612;SDS011;22054;51.646;7.078;2022-09-13T18:28:31;5.05;;;3.25;;
35612;SDS011;22054;51.646;7.078;2022-09-13T18:30:58;4.20;;;2.85;;
35612;SDS011;22054;51.646;7.078;2022-09-13T18:33:27;7.22;;;2.65;;
35612;SDS011;22054;51.646;7.078;2022-09-13T18:35:54;4.95;;;2.40;;
35612;SDS011;22054;51.646;7.078;2022-09-13T18:38:31;5.68;;;1.95;;
35612;SDS011;22054;51.646;7.078;2022-09-13T18:41:08;2.83;;;1.73;;
35612;SDS011;22054;51.646;7.078;2022-09-13T18:43:38;8.15;;;1.50;;
35612;SDS011;22054;51.646;7.078;2022-09-13T18:46:07;3.27;;;1.70;;
35612;SDS011;22054;51.646;7.078;2022-09-13T18:48:39;5.00;;;1.60;;
35612;SDS011;22054;51.646;7.078;2022-09-13T18:51:07;2.90;;;1.60;;
35612;SDS011;22054;51.646;7.078;2022-09-13T18:53:35;4.45;;;1.40;;
35612;SDS011;22054;51.646;7.078;2022-09-13T18:56:05;5.72;;;1.58;;
35612;SDS011;22054;51.646;7.078;2022-09-13T18:58:36;6.10;;;1.35;;
35612;SDS011;22054;51.646;7.078;2022-09-13T19:03:34;4.45;;;1.60;;